sensor_id;sensor_type;location;lat;lon;timestamp;temperature;humidity
3548;DHT22;1788;49.400;11.092;2022-10-31T00:00:30;14.30;65.60
3548;DHT22;1788;49.400;11.092;2022-10-31T00:02:57;14.30;65.60
3548;DHT22;1788;49.400;11.092;2022-10-31T00:05:24;14.20;65.60
3548;DHT22;1788;49.400;11.092;2022-10-31T00:10:17;14.20;65.60
3548;DHT22;1788;49.400;11.092;2022-10-31T00:12:44;14.20;65.60
3548;DHT22;1788;49.400;11.092;2022-10-31T00:15:11;14.20;65.70
3548;DHT22;1788;49.400;11.092;2022-10-31T00:17:38;14.10;65.60
3548;DHT22;1788;49.400;11.092;2022-10-31T00:20:04;14.10;65.60
3548;DHT22;1788;49.400;11.092;2022-10-31T00:22:31;14.10;65.60
3548;DHT22;1788;49.400;11.092;2022-10-31T00:24:58;14.10;65.70
3548;DHT22;1788;49.400;11.092;2022-10-31T00:27:25;14.10;65.70
3548;DHT22;1788;49.400;11.092;2022-10-31T00:29:52;14.00;65.90
3548;DHT22;1788;49.400;11.092;2022-10-31T00:32:19;14.00;65.50
3548;DHT22;1788;49.400;11.092;2022-10-31T00:34:46;14.00;65.50
3548;DHT22;1788;49.400;11.092;2022-10-31T00:37:12;14.00;65.50
3548;DHT22;1788;49.400;11.092;2022-10-31T00:39:39;13.90;65.40
3548;DHT22;1788;49.400;11.092;2022-10-31T00:42:05;13.90;65.60
3548;DHT22;1788;49.400;11.092;2022-10-31T00:44:32;13.90;65.70
3548;DHT22;1788;49.400;11.092;2022-10-31T00:46:59;13.90;65.70
3548;DHT22;1788;49.400;11.092;2022-10-31T00:49:25;13.90;65.70
3548;DHT22;1788;49.400;11.092;2022-10-31T00:51:53;13.80;65.60
3548;DHT22;1788;49.400;11.092;2022-10-31T00:54:19;13.80;65.60
3548;DHT22;1788;49.400;11.092;2022-10-31T00:56:47;13.80;65.60
3548;DHT22;1788;49.400;11.092;2022-10-31T00:59:13;13.80;65.60
3548;DHT22;1788;49.400;11.092;2022-10-31T01:01:41;13.80;65.60
3548;DHT22;1788;49.400;11.092;2022-10-31T01:04:07;13.80;65.60
3548;DHT22;1788;49.400;11.092;2022-10-31T01:06:34;13.80;65.70
3548;DHT22;1788;49.400;11.092;2022-10-31T01:09:01;13.80;65.80
3548;DHT22;1788;49.400;11.092;2022-10-31T01:11:28;13.70;65.70
3548;DHT22;1788;49.400;11.092;2022-10-31T01:13:55;13.70;65.80
3548;DHT22;1788;49.400;11.092;2022-10-31T01:16:23;13.70;65.80
3548;DHT22;1788;49.400;11.092;2022-10-31T01:18:49;13.70;65.90
3548;DHT22;1788;49.400;11.092;2022-10-31T01:21:17;13.70;66.00
3548;DHT22;1788;49.400;11.092;2022-10-31T01:23:42;13.70;65.90
3548;DHT22;1788;49.400;11.092;2022-10-31T01:26:11;13.70;65.80
3548;DHT22;1788;49.400;11.092;2022-10-31T01:28:37;13.60;65.80
3548;DHT22;1788;49.400;11.092;2022-10-31T01:31:03;13.60;65.70
3548;DHT22;1788;49.400;11.092;2022-10-31T01:33:29;13.60;65.70
3548;DHT22;1788;49.400;11.092;2022-10-31T01:35:56;13.60;65.60
3548;DHT22;1788;49.400;11.092;2022-10-31T01:38:22;13.60;65.70
3548;DHT22;1788;49.400;11.092;2022-10-31T01:40:49;13.60;65.70
3548;DHT22;1788;49.400;11.092;2022-10-31T01:43:16;13.60;65.80
3548;DHT22;1788;49.400;11.092;2022-10-31T01:45:43;13.50;65.70
3548;DHT22;1788;49.400;11.092;2022-10-31T01:48:12;13.50;65.70
3548;DHT22;1788;49.400;11.092;2022-10-31T01:50:36;13.50;65.60
3548;DHT22;1788;49.400;11.092;2022-10-31T01:53:02;13.50;65.70
3548;DHT22;1788;49.400;11.092;2022-10-31T01:57:57;13.40;65.50
3548;DHT22;1788;49.400;11.092;2022-10-31T02:00:23;13.40;65.60
3548;DHT22;1788;49.400;11.092;2022-10-31T02:02:49;13.40;65.50
3548;DHT22;1788;49.400;11.092;2022-10-31T02:05:17;13.40;65.50
3548;DHT22;1788;49.400;11.092;2022-10-31T02:10:10;13.30;65.40
3548;DHT22;1788;49.400;11.092;2022-10-31T02:12:36;13.30;65.50
3548;DHT22;1788;49.400;11.092;2022-10-31T02:15:03;13.30;65.50
3548;DHT22;1788;49.400;11.092;2022-10-31T02:17:29;13.20;65.30
3548;DHT22;1788;49.400;11.092;2022-10-31T02:22:26;13.20;65.50
3548;DHT22;1788;49.400;11.092;2022-10-31T02:27:18;13.20;65.50
3548;DHT22;1788;49.400;11.092;2022-10-31T02:37:07;13.10;65.20
3548;DHT22;1788;49.400;11.092;2022-10-31T02:39:33;13.10;65.30
3548;DHT22;1788;49.400;11.092;2022-10-31T02:44:27;13.10;65.30
3548;DHT22;1788;49.400;11.092;2022-10-31T02:46:52;13.10;65.30
3548;DHT22;1788;49.400;11.092;2022-10-31T02:49:18;13.00;65.20
3548;DHT22;1788;49.400;11.092;2022-10-31T02:51:44;13.00;65.20
3548;DHT22;1788;49.400;11.092;2022-10-31T02:56:37;13.00;65.30
3548;DHT22;1788;49.400;11.092;2022-10-31T02:59:04;13.00;65.30
3548;DHT22;1788;49.400;11.092;2022-10-31T03:11:20;12.80;65.10
3548;DHT22;1788;49.400;11.092;2022-10-31T03:23:31;12.70;65.10
3548;DHT22;1788;49.400;11.092;2022-10-31T03:25:58;12.70;65.10
3548;DHT22;1788;49.400;11.092;2022-10-31T03:28:27;12.70;65.20
3548;DHT22;1788;49.400;11.092;2022-10-31T03:30:51;12.70;65.20
3548;DHT22;1788;49.400;11.092;2022-10-31T03:33:19;12.70;65.20
3548;DHT22;1788;49.400;11.092;2022-10-31T03:35:46;12.60;65.20
3548;DHT22;1788;49.400;11.092;2022-10-31T03:38:12;12.60;65.20
3548;DHT22;1788;49.400;11.092;2022-10-31T03:40:40;12.60;65.20
3548;DHT22;1788;49.400;11.092;2022-10-31T03:43:09;12.60;65.90
3548;DHT22;1788;49.400;11.092;2022-10-31T03:45:33;12.50;65.80
3548;DHT22;1788;49.400;11.092;2022-10-31T03:48:00;12.50;65.10
3548;DHT22;1788;49.400;11.092;2022-10-31T03:50:28;12.50;65.10
3548;DHT22;1788;49.400;11.092;2022-10-31T03:52:56;12.50;65.90
3548;DHT22;1788;49.400;11.092;2022-10-31T04:00:13;12.40;65.00
3548;DHT22;1788;49.400;11.092;2022-10-31T04:05:06;12.40;65.10
3548;DHT22;1788;49.400;11.092;2022-10-31T04:07:34;12.40;65.10
3548;DHT22;1788;49.400;11.092;2022-10-31T04:10:00;12.40;65.80
3548;DHT22;1788;49.400;11.092;2022-10-31T04:12:26;12.40;65.10
3548;DHT22;1788;49.400;11.092;2022-10-31T04:14:53;12.40;65.10
3548;DHT22;1788;49.400;11.092;2022-10-31T04:17:21;12.30;65.10
3548;DHT22;1788;49.400;11.092;2022-10-31T04:19:47;12.30;65.00
3548;DHT22;1788;49.400;11.092;2022-10-31T04:22:14;12.30;65.00
3548;DHT22;1788;49.400;11.092;2022-10-31T04:24:41;12.30;65.00
3548;DHT22;1788;49.400;11.092;2022-10-31T04:27:07;12.30;65.00
3548;DHT22;1788;49.400;11.092;2022-10-31T04:29:34;12.30;65.00
3548;DHT22;1788;49.400;11.092;2022-10-31T04:32:00;12.20;64.90
3548;DHT22;1788;49.400;11.092;2022-10-31T04:34:27;12.20;64.90
3548;DHT22;1788;49.400;11.092;2022-10-31T04:36:54;12.20;65.00
3548;DHT22;1788;49.400;11.092;2022-10-31T04:39:21;12.20;65.00
3548;DHT22;1788;49.400;11.092;2022-10-31T04:41:48;12.20;65.00
3548;DHT22;1788;49.400;11.092;2022-10-31T04:44:15;12.20;65.10
3548;DHT22;1788;49.400;11.092;2022-10-31T04:46:41;12.20;65.10
3548;DHT22;1788;49.400;11.092;2022-10-31T04:49:08;12.10;65.00
3548;DHT22;1788;49.400;11.092;2022-10-31T04:51:34;12.10;65.00
3548;DHT22;1788;49.400;11.092;2022-10-31T04:54:01;12.10;65.00
3548;DHT22;1788;49.400;11.092;2022-10-31T04:56:27;12.20;65.20
3548;DHT22;1788;49.400;11.092;2022-10-31T04:58:54;12.20;65.20
3548;DHT22;1788;49.400;11.092;2022-10-31T05:01:21;12.20;65.20
3548;DHT22;1788;49.400;11.092;2022-10-31T05:03:47;12.20;65.20
3548;DHT22;1788;49.400;11.092;2022-10-31T05:06:14;12.20;65.30
3548;DHT22;1788;49.400;11.092;2022-10-31T05:08:40;12.20;65.30
3548;DHT22;1788;49.400;11.092;2022-10-31T05:11:07;12.20;65.40
3548;DHT22;1788;49.400;11.092;2022-10-31T05:13:34;12.20;65.40
3548;DHT22;1788;49.400;11.092;2022-10-31T05:16:00;12.20;65.40
3548;DHT22;1788;49.400;11.092;2022-10-31T05:18:28;12.20;65.60
3548;DHT22;1788;49.400;11.092;2022-10-31T05:20:55;12.10;65.50
3548;DHT22;1788;49.400;11.092;2022-10-31T05:23:22;12.20;65.50
3548;DHT22;1788;49.400;11.092;2022-10-31T05:25:48;12.10;65.40
3548;DHT22;1788;49.400;11.092;2022-10-31T05:28:15;12.10;65.40
3548;DHT22;1788;49.400;11.092;2022-10-31T05:30:42;12.10;65.40
3548;DHT22;1788;49.400;11.092;2022-10-31T05:33:08;12.10;65.40
3548;DHT22;1788;49.400;11.092;2022-10-31T05:35:35;12.10;65.50
3548;DHT22;1788;49.400;11.092;2022-10-31T05:38:01;12.10;65.40
3548;DHT22;1788;49.400;11.092;2022-10-31T05:40:28;12.00;65.30
3548;DHT22;1788;49.400;11.092;2022-10-31T05:42:55;12.00;65.40
3548;DHT22;1788;49.400;11.092;2022-10-31T05:45:21;12.00;65.40
3548;DHT22;1788;49.400;11.092;2022-10-31T05:50:15;12.00;65.40
3548;DHT22;1788;49.400;11.092;2022-10-31T05:52:41;12.00;65.40
3548;DHT22;1788;49.400;11.092;2022-10-31T05:55:08;12.00;65.50
3548;DHT22;1788;49.400;11.092;2022-10-31T05:57:34;12.00;65.50
3548;DHT22;1788;49.400;11.092;2022-10-31T06:00:01;11.90;65.30
3548;DHT22;1788;49.400;11.092;2022-10-31T06:02:28;11.90;65.30
3548;DHT22;1788;49.400;11.092;2022-10-31T06:04:55;11.90;65.30
3548;DHT22;1788;49.400;11.092;2022-10-31T06:07:22;11.90;65.30
3548;DHT22;1788;49.400;11.092;2022-10-31T06:09:48;11.90;65.30
3548;DHT22;1788;49.400;11.092;2022-10-31T06:12:15;11.90;65.40
3548;DHT22;1788;49.400;11.092;2022-10-31T06:14:41;11.90;66.10
3548;DHT22;1788;49.400;11.092;2022-10-31T06:17:08;11.80;65.30
3548;DHT22;1788;49.400;11.092;2022-10-31T06:19:35;11.80;65.30
3548;DHT22;1788;49.400;11.092;2022-10-31T06:22:01;11.80;65.30
3548;DHT22;1788;49.400;11.092;2022-10-31T06:24:28;11.80;65.40
3548;DHT22;1788;49.400;11.092;2022-10-31T06:26:54;11.80;65.30
3548;DHT22;1788;49.400;11.092;2022-10-31T06:29:21;11.80;65.30
3548;DHT22;1788;49.400;11.092;2022-10-31T06:31:50;11.80;65.30
3548;DHT22;1788;49.400;11.092;2022-10-31T06:34:14;11.80;65.30
3548;DHT22;1788;49.400;11.092;2022-10-31T06:36:41;11.80;65.40
3548;DHT22;1788;49.400;11.092;2022-10-31T06:39:08;11.80;65.40
3548;DHT22;1788;49.400;11.092;2022-10-31T06:41:35;11.80;65.40
3548;DHT22;1788;49.400;11.092;2022-10-31T06:44:02;11.80;65.50
3548;DHT22;1788;49.400;11.092;2022-10-31T06:46:29;11.80;65.50
3548;DHT22;1788;49.400;11.092;2022-10-31T06:48:56;11.90;65.60
3548;DHT22;1788;49.400;11.092;2022-10-31T06:51:22;11.90;65.60
3548;DHT22;1788;49.400;11.092;2022-10-31T06:53:50;11.90;65.60
3548;DHT22;1788;49.400;11.092;2022-10-31T06:56:17;11.90;65.70
3548;DHT22;1788;49.400;11.092;2022-10-31T06:58:43;12.00;65.90
3548;DHT22;1788;49.400;11.092;2022-10-31T07:01:10;12.00;65.90
3548;DHT22;1788;49.400;11.092;2022-10-31T07:03:36;12.10;65.90
3548;DHT22;1788;49.400;11.092;2022-10-31T07:06:03;12.10;65.90
3548;DHT22;1788;49.400;11.092;2022-10-31T07:08:30;12.10;65.90
3548;DHT22;1788;49.400;11.092;2022-10-31T07:10:56;12.20;66.00
3548;DHT22;1788;49.400;11.092;2022-10-31T07:13:23;12.20;66.00
3548;DHT22;1788;49.400;11.092;2022-10-31T07:15:50;12.30;66.30
3548;DHT22;1788;49.400;11.092;2022-10-31T07:18:16;12.40;66.50
3548;DHT22;1788;49.400;11.092;2022-10-31T07:20:43;12.40;66.60
3548;DHT22;1788;49.400;11.092;2022-10-31T07:23:10;12.60;67.00
3548;DHT22;1788;49.400;11.092;2022-10-31T07:25:38;12.70;67.20
3548;DHT22;1788;49.400;11.092;2022-10-31T07:28:03;12.80;67.30
3548;DHT22;1788;49.400;11.092;2022-10-31T07:30:30;12.90;67.30
3548;DHT22;1788;49.400;11.092;2022-10-31T07:32:56;13.00;67.40
3548;DHT22;1788;49.400;11.092;2022-10-31T07:35:24;13.10;68.30
3548;DHT22;1788;49.400;11.092;2022-10-31T07:37:50;13.20;67.60
3548;DHT22;1788;49.400;11.092;2022-10-31T07:40:16;13.30;67.70
3548;DHT22;1788;49.400;11.092;2022-10-31T07:42:44;13.40;67.80
3548;DHT22;1788;49.400;11.092;2022-10-31T07:45:10;13.50;68.00
3548;DHT22;1788;49.400;11.092;2022-10-31T07:50:03;13.70;68.20
3548;DHT22;1788;49.400;11.092;2022-10-31T07:52:29;13.90;68.40
3548;DHT22;1788;49.400;11.092;2022-10-31T07:54:56;14.00;68.40
3548;DHT22;1788;49.400;11.092;2022-10-31T07:57:22;14.10;68.40
3548;DHT22;1788;49.400;11.092;2022-10-31T07:59:49;14.20;68.50
3548;DHT22;1788;49.400;11.092;2022-10-31T08:02:16;14.30;68.60
3548;DHT22;1788;49.400;11.092;2022-10-31T08:04:42;14.50;68.70
3548;DHT22;1788;49.400;11.092;2022-10-31T08:07:09;14.60;68.80
3548;DHT22;1788;49.400;11.092;2022-10-31T08:09:35;14.80;69.00
3548;DHT22;1788;49.400;11.092;2022-10-31T08:12:02;14.90;69.00
3548;DHT22;1788;49.400;11.092;2022-10-31T08:14:29;15.10;69.10
3548;DHT22;1788;49.400;11.092;2022-10-31T08:16:56;15.50;69.00
3548;DHT22;1788;49.400;11.092;2022-10-31T08:19:23;15.50;69.00
3548;DHT22;1788;49.400;11.092;2022-10-31T08:24:16;15.90;68.70
3548;DHT22;1788;49.400;11.092;2022-10-31T08:26:42;16.10;68.70
3548;DHT22;1788;49.400;11.092;2022-10-31T08:29:09;16.30;68.50
3548;DHT22;1788;49.400;11.092;2022-10-31T08:31:36;16.70;68.30
3548;DHT22;1788;49.400;11.092;2022-10-31T08:34:03;16.60;68.20
3548;DHT22;1788;49.400;11.092;2022-10-31T08:36:30;17.00;67.90
3548;DHT22;1788;49.400;11.092;2022-10-31T08:38:57;17.00;67.90
3548;DHT22;1788;49.400;11.092;2022-10-31T08:41:24;17.10;67.70
3548;DHT22;1788;49.400;11.092;2022-10-31T08:43:50;17.30;67.50
3548;DHT22;1788;49.400;11.092;2022-10-31T08:46:18;17.50;67.00
3548;DHT22;1788;49.400;11.092;2022-10-31T08:48:47;17.50;67.00
3548;DHT22;1788;49.400;11.092;2022-10-31T08:51:12;17.60;66.80
3548;DHT22;1788;49.400;11.092;2022-10-31T08:53:40;17.60;66.70
3548;DHT22;1788;49.400;11.092;2022-10-31T08:56:06;17.70;66.60
3548;DHT22;1788;49.400;11.092;2022-10-31T08:58:34;17.90;66.60
3548;DHT22;1788;49.400;11.092;2022-10-31T09:01:00;17.90;66.50
3548;DHT22;1788;49.400;11.092;2022-10-31T09:03:29;18.10;66.20
3548;DHT22;1788;49.400;11.092;2022-10-31T09:05:55;18.00;66.10
3548;DHT22;1788;49.400;11.092;2022-10-31T09:08:22;18.20;66.00
3548;DHT22;1788;49.400;11.092;2022-10-31T09:10:48;18.10;65.90
3548;DHT22;1788;49.400;11.092;2022-10-31T09:13:17;18.30;65.90
3548;DHT22;1788;49.400;11.092;2022-10-31T09:15:43;18.20;65.80
3548;DHT22;1788;49.400;11.092;2022-10-31T09:18:12;18.30;65.80
3548;DHT22;1788;49.400;11.092;2022-10-31T09:20:36;18.40;65.80
3548;DHT22;1788;49.400;11.092;2022-10-31T09:23:03;18.50;65.80
3548;DHT22;1788;49.400;11.092;2022-10-31T09:25:29;18.60;65.70
3548;DHT22;1788;49.400;11.092;2022-10-31T09:27:57;18.70;66.10
3548;DHT22;1788;49.400;11.092;2022-10-31T09:30:23;18.70;65.40
3548;DHT22;1788;49.400;11.092;2022-10-31T09:35:18;18.90;65.30
3548;DHT22;1788;49.400;11.092;2022-10-31T09:37:44;19.00;65.20
3548;DHT22;1788;49.400;11.092;2022-10-31T09:40:11;19.10;65.10
3548;DHT22;1788;49.400;11.092;2022-10-31T09:47:36;19.50;64.90
3548;DHT22;1788;49.400;11.092;2022-10-31T09:52:28;19.70;64.60
3548;DHT22;1788;49.400;11.092;2022-10-31T09:54:54;19.80;64.40
3548;DHT22;1788;49.400;11.092;2022-10-31T09:57:25;20.00;64.00
3548;DHT22;1788;49.400;11.092;2022-10-31T09:59:47;20.00;63.90
3548;DHT22;1788;49.400;11.092;2022-10-31T10:09:33;20.50;63.60
3548;DHT22;1788;49.400;11.092;2022-10-31T10:14:30;20.80;63.40
3548;DHT22;1788;49.400;11.092;2022-10-31T10:24:17;21.10;62.30
3548;DHT22;1788;49.400;11.092;2022-10-31T10:31:34;21.10;61.70
3548;DHT22;1788;49.400;11.092;2022-10-31T10:36:27;21.10;61.40
3548;DHT22;1788;49.400;11.092;2022-10-31T10:38:53;21.00;61.30
3548;DHT22;1788;49.400;11.092;2022-10-31T10:41:20;21.00;61.40
3548;DHT22;1788;49.400;11.092;2022-10-31T10:43:48;20.90;61.40
3548;DHT22;1788;49.400;11.092;2022-10-31T10:51:07;20.90;61.70
3548;DHT22;1788;49.400;11.092;2022-10-31T10:58:27;20.90;61.80
3548;DHT22;1788;49.400;11.092;2022-10-31T11:00:54;20.90;61.70
3548;DHT22;1788;49.400;11.092;2022-10-31T11:03:20;20.90;61.60
3548;DHT22;1788;49.400;11.092;2022-10-31T11:10:40;21.10;61.30
3548;DHT22;1788;49.400;11.092;2022-10-31T11:13:17;21.30;61.30
3548;DHT22;1788;49.400;11.092;2022-10-31T11:15:35;21.40;61.20
3548;DHT22;1788;49.400;11.092;2022-10-31T11:18:01;21.60;60.80
3548;DHT22;1788;49.400;11.092;2022-10-31T11:23:04;21.90;60.30
3548;DHT22;1788;49.400;11.092;2022-10-31T11:25:22;21.90;60.30
3548;DHT22;1788;49.400;11.092;2022-10-31T11:30:15;22.20;60.00
3548;DHT22;1788;49.400;11.092;2022-10-31T11:32:44;22.60;59.60
3548;DHT22;1788;49.400;11.092;2022-10-31T11:35:10;22.50;59.50
3548;DHT22;1788;49.400;11.092;2022-10-31T11:37:40;22.80;59.60
3548;DHT22;1788;49.400;11.092;2022-10-31T11:40:04;22.80;59.00
3548;DHT22;1788;49.400;11.092;2022-10-31T11:42:36;23.00;58.80
3548;DHT22;1788;49.400;11.092;2022-10-31T11:44:59;23.30;58.50
3548;DHT22;1788;49.400;11.092;2022-10-31T11:47:27;23.40;58.80
3548;DHT22;1788;49.400;11.092;2022-10-31T11:49:53;23.40;58.20
3548;DHT22;1788;49.400;11.092;2022-10-31T11:52:22;23.70;57.60
3548;DHT22;1788;49.400;11.092;2022-10-31T11:54:49;23.60;57.80
3548;DHT22;1788;49.400;11.092;2022-10-31T11:59:50;23.90;57.50
3548;DHT22;1788;49.400;11.092;2022-10-31T12:04:36;24.10;57.00
3548;DHT22;1788;49.400;11.092;2022-10-31T12:07:00;24.10;56.70
3548;DHT22;1788;49.400;11.092;2022-10-31T12:09:27;24.30;56.70
3548;DHT22;1788;49.400;11.092;2022-10-31T12:19:20;24.60;55.70
3548;DHT22;1788;49.400;11.092;2022-10-31T12:29:07;24.70;54.90
3548;DHT22;1788;49.400;11.092;2022-10-31T12:34:00;24.60;54.90
3548;DHT22;1788;49.400;11.092;2022-10-31T12:36:29;24.50;55.00
3548;DHT22;1788;49.400;11.092;2022-10-31T12:46:13;24.30;55.10
3548;DHT22;1788;49.400;11.092;2022-10-31T13:05:48;23.90;55.20
3548;DHT22;1788;49.400;11.092;2022-10-31T13:13:12;23.70;55.20
3548;DHT22;1788;49.400;11.092;2022-10-31T13:15:38;23.60;55.20
3548;DHT22;1788;49.400;11.092;2022-10-31T13:18:04;23.70;55.30
3548;DHT22;1788;49.400;11.092;2022-10-31T13:32:45;23.20;55.60
3548;DHT22;1788;49.400;11.092;2022-10-31T13:35:13;23.20;55.70
3548;DHT22;1788;49.400;11.092;2022-10-31T13:37:37;23.10;55.70
3548;DHT22;1788;49.400;11.092;2022-10-31T13:40:05;23.00;55.80
3548;DHT22;1788;49.400;11.092;2022-10-31T13:45:06;23.30;56.20
3548;DHT22;1788;49.400;11.092;2022-10-31T13:49:49;23.60;55.50
3548;DHT22;1788;49.400;11.092;2022-10-31T13:59:36;25.80;52.90
3548;DHT22;1788;49.400;11.092;2022-10-31T14:02:12;25.80;52.90
3548;DHT22;1788;49.400;11.092;2022-10-31T14:04:32;25.60;52.90
3548;DHT22;1788;49.400;11.092;2022-10-31T14:11:51;25.30;53.10
3548;DHT22;1788;49.400;11.092;2022-10-31T14:14:18;25.00;54.30
3548;DHT22;1788;49.400;11.092;2022-10-31T14:16:45;24.90;53.60
3548;DHT22;1788;49.400;11.092;2022-10-31T14:26:33;24.20;54.70
3548;DHT22;1788;49.400;11.092;2022-10-31T14:33:53;23.70;55.60
3548;DHT22;1788;49.400;11.092;2022-10-31T14:51:00;22.60;57.30
3548;DHT22;1788;49.400;11.092;2022-10-31T14:53:28;22.50;57.50
3548;DHT22;1788;49.400;11.092;2022-10-31T14:55:53;22.30;57.70
3548;DHT22;1788;49.400;11.092;2022-10-31T14:58:21;22.20;57.90
3548;DHT22;1788;49.400;11.092;2022-10-31T15:00:46;22.10;58.10
3548;DHT22;1788;49.400;11.092;2022-10-31T15:10:36;21.70;58.80
3548;DHT22;1788;49.400;11.092;2022-10-31T15:15:29;21.40;59.40
3548;DHT22;1788;49.400;11.092;2022-10-31T15:17:57;21.40;59.40
3548;DHT22;1788;49.400;11.092;2022-10-31T15:22:50;21.20;59.70
3548;DHT22;1788;49.400;11.092;2022-10-31T15:25:18;21.10;60.90
3548;DHT22;1788;49.400;11.092;2022-10-31T15:27:44;21.00;60.00
3548;DHT22;1788;49.400;11.092;2022-10-31T15:32:38;20.90;60.70
3548;DHT22;1788;49.400;11.092;2022-10-31T15:35:08;20.80;61.40
3548;DHT22;1788;49.400;11.092;2022-10-31T15:37:32;20.80;60.70
3548;DHT22;1788;49.400;11.092;2022-10-31T15:40:05;20.70;60.80
3548;DHT22;1788;49.400;11.092;2022-10-31T15:42:28;20.60;60.80
3548;DHT22;1788;49.400;11.092;2022-10-31T15:47:22;20.50;61.00
3548;DHT22;1788;49.400;11.092;2022-10-31T15:52:16;20.30;61.10
3548;DHT22;1788;49.400;11.092;2022-10-31T15:59:35;20.20;61.40
3548;DHT22;1788;49.400;11.092;2022-10-31T16:02:03;20.20;61.60
3548;DHT22;1788;49.400;11.092;2022-10-31T16:04:28;20.10;61.70
3548;DHT22;1788;49.400;11.092;2022-10-31T16:09:22;19.90;61.90
3548;DHT22;1788;49.400;11.092;2022-10-31T16:11:50;19.90;62.10
3548;DHT22;1788;49.400;11.092;2022-10-31T16:14:17;19.80;62.20
3548;DHT22;1788;49.400;11.092;2022-10-31T16:21:37;19.60;63.20
3548;DHT22;1788;49.400;11.092;2022-10-31T16:24:10;19.50;62.50
3548;DHT22;1788;49.400;11.092;2022-10-31T16:26:32;19.40;62.60
3548;DHT22;1788;49.400;11.092;2022-10-31T16:28:58;19.30;62.90
3548;DHT22;1788;49.400;11.092;2022-10-31T16:31:26;19.20;63.00
3548;DHT22;1788;49.400;11.092;2022-10-31T16:34:00;19.10;63.10
3548;DHT22;1788;49.400;11.092;2022-10-31T16:38:45;19.00;63.20
3548;DHT22;1788;49.400;11.092;2022-10-31T16:41:12;18.90;63.90
3548;DHT22;1788;49.400;11.092;2022-10-31T16:43:39;18.90;63.30
3548;DHT22;1788;49.400;11.092;2022-10-31T16:48:37;18.80;63.40
3548;DHT22;1788;49.400;11.092;2022-10-31T16:51:03;18.70;63.50
3548;DHT22;1788;49.400;11.092;2022-10-31T16:53:30;18.70;63.60
3548;DHT22;1788;49.400;11.092;2022-10-31T16:55:57;18.60;63.60
3548;DHT22;1788;49.400;11.092;2022-10-31T17:00:50;18.50;63.70
3548;DHT22;1788;49.400;11.092;2022-10-31T17:03:18;18.40;64.00
3548;DHT22;1788;49.400;11.092;2022-10-31T17:05:46;18.30;63.90
3548;DHT22;1788;49.400;11.092;2022-10-31T17:08:13;18.30;64.00
3548;DHT22;1788;49.400;11.092;2022-10-31T17:10:40;18.30;64.00
3548;DHT22;1788;49.400;11.092;2022-10-31T17:13:08;18.20;64.00
3548;DHT22;1788;49.400;11.092;2022-10-31T17:15:37;18.10;63.90
3548;DHT22;1788;49.400;11.092;2022-10-31T17:18:02;18.10;63.90
3548;DHT22;1788;49.400;11.092;2022-10-31T17:20:30;18.00;64.00
3548;DHT22;1788;49.400;11.092;2022-10-31T17:22:57;17.90;63.90
3548;DHT22;1788;49.400;11.092;2022-10-31T17:25:25;17.80;64.10
3548;DHT22;1788;49.400;11.092;2022-10-31T17:27:50;17.80;64.00
3548;DHT22;1788;49.400;11.092;2022-10-31T17:30:18;17.70;64.20
3548;DHT22;1788;49.400;11.092;2022-10-31T17:32:45;17.70;64.20
3548;DHT22;1788;49.400;11.092;2022-10-31T17:35:12;17.60;64.40
3548;DHT22;1788;49.400;11.092;2022-10-31T17:37:39;17.60;64.40
3548;DHT22;1788;49.400;11.092;2022-10-31T17:40:05;17.50;64.50
3548;DHT22;1788;49.400;11.092;2022-10-31T17:42:32;17.50;64.70
3548;DHT22;1788;49.400;11.092;2022-10-31T17:44:58;17.40;64.80
3548;DHT22;1788;49.400;11.092;2022-10-31T17:47:25;17.30;65.00
3548;DHT22;1788;49.400;11.092;2022-10-31T17:49:51;17.20;65.00
3548;DHT22;1788;49.400;11.092;2022-10-31T17:52:18;17.20;65.10
3548;DHT22;1788;49.400;11.092;2022-10-31T17:54:45;17.20;65.10
3548;DHT22;1788;49.400;11.092;2022-10-31T17:57:12;17.10;65.20
3548;DHT22;1788;49.400;11.092;2022-10-31T17:59:39;17.00;65.00
3548;DHT22;1788;49.400;11.092;2022-10-31T18:02:07;17.00;65.30
3548;DHT22;1788;49.400;11.092;2022-10-31T18:04:33;17.00;65.30
3548;DHT22;1788;49.400;11.092;2022-10-31T18:07:00;16.90;65.30
3548;DHT22;1788;49.400;11.092;2022-10-31T18:09:27;16.80;65.10
3548;DHT22;1788;49.400;11.092;2022-10-31T18:11:54;16.80;65.10
3548;DHT22;1788;49.400;11.092;2022-10-31T18:14:22;16.70;65.00
3548;DHT22;1788;49.400;11.092;2022-10-31T18:16:48;16.70;65.00
3548;DHT22;1788;49.400;11.092;2022-10-31T18:19:15;16.70;65.10
3548;DHT22;1788;49.400;11.092;2022-10-31T18:21:41;16.60;65.00
3548;DHT22;1788;49.400;11.092;2022-10-31T18:24:08;16.60;65.20
3548;DHT22;1788;49.400;11.092;2022-10-31T18:26:35;16.60;65.40
3548;DHT22;1788;49.400;11.092;2022-10-31T18:29:01;16.50;65.30
3548;DHT22;1788;49.400;11.092;2022-10-31T18:31:28;16.50;65.30
3548;DHT22;1788;49.400;11.092;2022-10-31T18:33:55;16.40;65.10
3548;DHT22;1788;49.400;11.092;2022-10-31T18:36:22;16.40;66.00
3548;DHT22;1788;49.400;11.092;2022-10-31T18:38:48;16.30;65.10
3548;DHT22;1788;49.400;11.092;2022-10-31T18:41:15;16.30;65.10
3548;DHT22;1788;49.400;11.092;2022-10-31T18:43:42;16.20;65.00
3548;DHT22;1788;49.400;11.092;2022-10-31T18:46:10;16.20;65.10
3548;DHT22;1788;49.400;11.092;2022-10-31T18:48:35;16.10;65.10
3548;DHT22;1788;49.400;11.092;2022-10-31T18:51:03;16.10;65.20
3548;DHT22;1788;49.400;11.092;2022-10-31T18:53:29;16.10;65.40
3548;DHT22;1788;49.400;11.092;2022-10-31T18:55:55;16.00;65.40
3548;DHT22;1788;49.400;11.092;2022-10-31T18:58:23;16.00;65.50
3548;DHT22;1788;49.400;11.092;2022-10-31T19:00:49;15.90;65.40
3548;DHT22;1788;49.400;11.092;2022-10-31T19:03:16;15.90;65.50
3548;DHT22;1788;49.400;11.092;2022-10-31T19:05:42;15.80;65.40
3548;DHT22;1788;49.400;11.092;2022-10-31T19:08:09;15.80;65.40
3548;DHT22;1788;49.400;11.092;2022-10-31T19:10:36;15.80;65.40
3548;DHT22;1788;49.400;11.092;2022-10-31T19:13:02;15.70;65.40
3548;DHT22;1788;49.400;11.092;2022-10-31T19:15:29;15.70;65.50
3548;DHT22;1788;49.400;11.092;2022-10-31T19:17:55;15.60;65.40
3548;DHT22;1788;49.400;11.092;2022-10-31T19:20:22;15.60;65.40
3548;DHT22;1788;49.400;11.092;2022-10-31T19:22:48;15.60;65.40
3548;DHT22;1788;49.400;11.092;2022-10-31T19:25:15;15.50;65.30
3548;DHT22;1788;49.400;11.092;2022-10-31T19:27:42;15.50;65.40
3548;DHT22;1788;49.400;11.092;2022-10-31T19:30:10;15.40;65.30
3548;DHT22;1788;49.400;11.092;2022-10-31T19:32:36;15.40;65.30
3548;DHT22;1788;49.400;11.092;2022-10-31T19:35:03;15.40;65.30
3548;DHT22;1788;49.400;11.092;2022-10-31T19:37:29;15.30;65.30
3548;DHT22;1788;49.400;11.092;2022-10-31T19:39:56;15.30;65.30
3548;DHT22;1788;49.400;11.092;2022-10-31T19:42:23;15.30;65.40
3548;DHT22;1788;49.400;11.092;2022-10-31T19:44:49;15.20;65.40
3548;DHT22;1788;49.400;11.092;2022-10-31T19:47:16;15.20;65.50
3548;DHT22;1788;49.400;11.092;2022-10-31T19:49:42;15.20;65.50
3548;DHT22;1788;49.400;11.092;2022-10-31T19:52:09;15.20;65.50
3548;DHT22;1788;49.400;11.092;2022-10-31T19:54:36;15.10;65.40
3548;DHT22;1788;49.400;11.092;2022-10-31T19:57:02;15.10;65.40
3548;DHT22;1788;49.400;11.092;2022-10-31T19:59:29;15.10;65.50